DAL500 KATL-KLAX
Flight info
| Callsign | DAL500 |
|---|---|
| Flight time | 4h 19m |
| Altitude | 32000 |
| Route | NASSA2 YAALL J14 PNH ACH ABQ J78 DRK GABBL HLYWD1 |
| Aircraft | A21N/M-SDE2E3FGHIRWXY/LB1 |
Departure
| Time | 2026-05-07 22:13 |
|---|---|
| Airport | Hartsfield Jackson Atlanta International Airport (KATL) |
Arrival
| Time | 2026-05-08 02:33 |
|---|---|
| Airport | Los Angeles International Airport (KLAX) |
| Time | Latitude | Longitude | Altitude | Speed | Heading |
|---|---|---|---|---|---|
| 2026-05-07 21:52 | 33.63751 | -84.44191 | 1041 ft | 0 kts | 270° |
| 2026-05-07 22:00 | 33.63750 | -84.44174 | 1041 ft | 4 kts | 277° |
| 2026-05-07 22:00 | 33.63744 | -84.44143 | 1032 ft | 4 kts | 299° |
| 2026-05-07 22:00 | 33.63735 | -84.44128 | 1041 ft | 0 kts | 319° |
| 2026-05-07 22:03 | 33.63740 | -84.44132 | 1041 ft | 3 kts | 330° |
| 2026-05-07 22:03 | 33.63777 | -84.44133 | 1041 ft | 8 kts | 7° |
| 2026-05-07 22:04 | 33.63838 | -84.44124 | 1041 ft | 10 kts | 6° |
| 2026-05-07 22:04 | 33.63890 | -84.44118 | 1041 ft | 12 kts | 2° |
| 2026-05-07 22:04 | 33.63981 | -84.44117 | 1041 ft | 14 kts | 359° |
| 2026-05-07 22:04 | 33.64078 | -84.44117 | 1041 ft | 14 kts | 0° |
| 2026-05-07 22:05 | 33.64180 | -84.44116 | 1041 ft | 16 kts | 360° |
| 2026-05-07 22:05 | 33.64296 | -84.44117 | 1041 ft | 18 kts | 359° |
| 2026-05-07 22:05 | 33.64410 | -84.44079 | 1041 ft | 15 kts | 60° |
| 2026-05-07 22:05 | 33.64432 | -84.43949 | 1041 ft | 17 kts | 82° |
| 2026-05-07 22:06 | 33.64451 | -84.43801 | 1041 ft | 18 kts | 83° |
| 2026-05-07 22:06 | 33.64460 | -84.43645 | 1041 ft | 19 kts | 89° |
| 2026-05-07 22:06 | 33.64459 | -84.43485 | 1041 ft | 20 kts | 90° |
| 2026-05-07 22:06 | 33.64460 | -84.43318 | 1041 ft | 20 kts | 90° |
| 2026-05-07 22:07 | 33.64460 | -84.43144 | 1041 ft | 21 kts | 89° |
| 2026-05-07 22:07 | 33.64461 | -84.42964 | 1041 ft | 22 kts | 90° |
| 2026-05-07 22:07 | 33.64462 | -84.42776 | 1041 ft | 23 kts | 85° |
| 2026-05-07 22:07 | 33.64470 | -84.42586 | 1041 ft | 21 kts | 91° |
| 2026-05-07 22:08 | 33.64469 | -84.42411 | 1040 ft | 21 kts | 89° |
| 2026-05-07 22:08 | 33.64478 | -84.42255 | 1041 ft | 16 kts | 70° |
| 2026-05-07 22:08 | 33.64532 | -84.42132 | 1040 ft | 17 kts | 69° |
| 2026-05-07 22:08 | 33.64542 | -84.41986 | 1040 ft | 18 kts | 91° |
| 2026-05-07 22:09 | 33.64543 | -84.41830 | 1041 ft | 19 kts | 89° |
| 2026-05-07 22:09 | 33.64544 | -84.41668 | 1041 ft | 20 kts | 90° |
| 2026-05-07 22:09 | 33.64544 | -84.41498 | 1041 ft | 21 kts | 90° |
| 2026-05-07 22:09 | 33.64543 | -84.41322 | 1041 ft | 22 kts | 90° |
| 2026-05-07 22:10 | 33.64543 | -84.41138 | 1041 ft | 22 kts | 89° |
| 2026-05-07 22:10 | 33.64543 | -84.40970 | 1041 ft | 19 kts | 90° |
| 2026-05-07 22:10 | 33.64553 | -84.40821 | 1040 ft | 15 kts | 75° |
| 2026-05-07 22:10 | 33.64569 | -84.40717 | 1040 ft | 10 kts | 84° |
| 2026-05-07 22:11 | 33.64572 | -84.40633 | 1040 ft | 6 kts | 84° |
| 2026-05-07 22:11 | 33.64575 | -84.40616 | 1040 ft | 0 kts | 73° |
| 2026-05-07 22:11 | 33.64576 | -84.40613 | 1040 ft | 2 kts | 72° |
| 2026-05-07 22:11 | 33.64596 | -84.40587 | 1039 ft | 7 kts | 29° |
| 2026-05-07 22:12 | 33.64651 | -84.40577 | 1038 ft | 9 kts | 357° |
| 2026-05-07 22:12 | 33.64678 | -84.40616 | 1038 ft | 4 kts | 271° |
| 2026-05-07 22:12 | 33.64678 | -84.40661 | 1038 ft | 14 kts | 270° |
| 2026-05-07 22:12 | 33.64679 | -84.41064 | 1041 ft | 84 kts | 270° |
| 2026-05-07 22:13 | 33.64678 | -84.42021 | 1040 ft | 140 kts | 270° |
| 2026-05-07 22:13 | 33.64683 | -84.43334 | 1224 ft | 162 kts | 274° |
| 2026-05-07 22:13 | 33.64683 | -84.44649 | 1945 ft | 157 kts | 272° |
| 2026-05-07 22:13 | 33.64671 | -84.46001 | 2420 ft | 169 kts | 272° |
| 2026-05-07 22:14 | 33.64884 | -84.47452 | 2758 ft | 183 kts | 287° |
| 2026-05-07 22:14 | 33.65204 | -84.48976 | 3158 ft | 199 kts | 283° |
| 2026-05-07 22:14 | 33.65502 | -84.50684 | 3513 ft | 222 kts | 283° |
| 2026-05-07 22:14 | 33.65882 | -84.52592 | 3835 ft | 246 kts | 284° |
| 2026-05-07 22:15 | 33.66284 | -84.54591 | 4628 ft | 248 kts | 283° |
| 2026-05-07 22:15 | 33.66684 | -84.56627 | 5377 ft | 252 kts | 282° |
| 2026-05-07 22:15 | 33.67063 | -84.58636 | 6441 ft | 243 kts | 281° |
| 2026-05-07 22:15 | 33.67410 | -84.60644 | 7171 ft | 247 kts | 280° |
| 2026-05-07 22:16 | 33.67753 | -84.62670 | 7939 ft | 248 kts | 280° |
| 2026-05-07 22:16 | 33.68092 | -84.64706 | 8684 ft | 251 kts | 280° |
| 2026-05-07 22:16 | 33.68437 | -84.66764 | 9459 ft | 251 kts | 280° |
| 2026-05-07 22:16 | 33.68785 | -84.68834 | 10156 ft | 256 kts | 280° |
| 2026-05-07 22:17 | 33.69150 | -84.71002 | 10449 ft | 275 kts | 280° |
| 2026-05-07 22:17 | 33.69541 | -84.73323 | 10673 ft | 293 kts | 281° |
| 2026-05-07 22:17 | 33.69923 | -84.75812 | 10896 ft | 311 kts | 276° |
| 2026-05-07 22:17 | 33.70016 | -84.78481 | 11098 ft | 329 kts | 271° |
| 2026-05-07 22:18 | 33.69999 | -84.81296 | 11323 ft | 345 kts | 270° |
| 2026-05-07 22:18 | 33.69954 | -84.87174 | 12290 ft | 354 kts | 271° |
| 2026-05-07 22:18 | 33.69947 | -84.90130 | 13002 ft | 354 kts | 271° |
| 2026-05-07 22:19 | 33.69939 | -84.93067 | 13776 ft | 352 kts | 272° |
| 2026-05-07 22:19 | 33.69934 | -84.96000 | 14440 ft | 352 kts | 271° |
| 2026-05-07 22:19 | 33.69929 | -84.98944 | 15082 ft | 353 kts | 271° |
| 2026-05-07 22:19 | 33.69927 | -85.01907 | 15680 ft | 356 kts | 270° |
| 2026-05-07 22:20 | 33.69904 | -85.04879 | 16232 ft | 358 kts | 269° |
| 2026-05-07 22:20 | 33.69883 | -85.07876 | 16753 ft | 360 kts | 269° |
| 2026-05-07 22:20 | 33.69867 | -85.10891 | 17271 ft | 362 kts | 269° |
| 2026-05-07 22:20 | 33.69854 | -85.13918 | 17779 ft | 363 kts | 269° |
| 2026-05-07 22:21 | 33.69839 | -85.16963 | 18292 ft | 365 kts | 268° |
| 2026-05-07 22:21 | 33.69826 | -85.19983 | 18685 ft | 367 kts | 269° |
| 2026-05-07 22:21 | 33.69820 | -85.23059 | 19074 ft | 370 kts | 269° |
| 2026-05-07 22:21 | 33.69796 | -85.26160 | 19497 ft | 372 kts | 268° |
| 2026-05-07 22:22 | 33.69760 | -85.29270 | 19922 ft | 374 kts | 268° |
| 2026-05-07 22:22 | 33.69720 | -85.32392 | 20270 ft | 376 kts | 268° |
| 2026-05-07 22:22 | 33.69687 | -85.35544 | 20690 ft | 379 kts | 268° |
| 2026-05-07 22:22 | 33.69651 | -85.38722 | 21191 ft | 381 kts | 268° |
| 2026-05-07 22:23 | 33.69609 | -85.41920 | 21708 ft | 384 kts | 268° |
| 2026-05-07 22:23 | 33.69565 | -85.45133 | 22172 ft | 386 kts | 268° |
| 2026-05-07 22:23 | 33.69521 | -85.48363 | 22609 ft | 389 kts | 268° |
| 2026-05-07 22:23 | 33.69476 | -85.51624 | 23022 ft | 391 kts | 268° |
| 2026-05-07 22:24 | 33.69432 | -85.54889 | 23430 ft | 393 kts | 268° |
| 2026-05-07 22:24 | 33.69388 | -85.58182 | 23825 ft | 394 kts | 268° |
| 2026-05-07 22:24 | 33.69346 | -85.61458 | 24256 ft | 392 kts | 268° |
| 2026-05-07 22:24 | 33.69305 | -85.64726 | 24690 ft | 390 kts | 268° |
| 2026-05-07 22:25 | 33.69261 | -85.67965 | 25133 ft | 388 kts | 268° |
| 2026-05-07 22:25 | 33.69223 | -85.71192 | 25600 ft | 385 kts | 268° |
| 2026-05-07 22:25 | 33.69185 | -85.74388 | 26039 ft | 381 kts | 268° |
| 2026-05-07 22:25 | 33.69134 | -85.77571 | 26434 ft | 381 kts | 268° |
| 2026-05-07 22:26 | 33.69082 | -85.80750 | 26837 ft | 380 kts | 268° |
| 2026-05-07 22:26 | 33.69039 | -85.83919 | 27271 ft | 378 kts | 268° |
| 2026-05-07 22:26 | 33.68997 | -85.87062 | 27714 ft | 376 kts | 268° |
| 2026-05-07 22:26 | 33.68950 | -85.90204 | 28142 ft | 375 kts | 268° |
| 2026-05-07 22:27 | 33.68903 | -85.93318 | 28564 ft | 373 kts | 268° |
| 2026-05-07 22:27 | 33.68855 | -85.96423 | 28970 ft | 371 kts | 268° |
| 2026-05-07 22:27 | 33.68804 | -85.99522 | 29378 ft | 370 kts | 268° |
| 2026-05-07 22:27 | 33.68747 | -86.02605 | 29777 ft | 368 kts | 268° |
| 2026-05-07 22:28 | 33.68824 | -86.05670 | 30143 ft | 368 kts | 272° |
| 2026-05-07 22:28 | 33.69050 | -86.08726 | 30447 ft | 367 kts | 273° |
| 2026-05-07 22:28 | 33.69282 | -86.11768 | 30748 ft | 365 kts | 273° |
| 2026-05-07 22:28 | 33.69526 | -86.14802 | 31033 ft | 365 kts | 273° |
| 2026-05-07 22:29 | 33.69784 | -86.17826 | 31334 ft | 364 kts | 273° |
| 2026-05-07 22:29 | 33.70035 | -86.20845 | 31621 ft | 363 kts | 272° |
| 2026-05-07 22:29 | 33.70277 | -86.23864 | 31898 ft | 362 kts | 272° |
| 2026-05-07 22:29 | 33.70514 | -86.26877 | 32021 ft | 363 kts | 272° |
| 2026-05-07 22:30 | 33.70747 | -86.29911 | 32030 ft | 365 kts | 272° |
| 2026-05-07 22:30 | 33.71215 | -86.35984 | 32012 ft | 365 kts | 272° |
| 2026-05-07 22:31 | 33.71679 | -86.42069 | 32012 ft | 365 kts | 272° |
| 2026-05-07 22:31 | 33.72145 | -86.48151 | 32013 ft | 365 kts | 272° |
| 2026-05-07 22:32 | 33.72607 | -86.54222 | 32029 ft | 365 kts | 272° |
| 2026-05-07 22:32 | 33.73066 | -86.60308 | 32041 ft | 366 kts | 272° |
| 2026-05-07 22:33 | 33.73521 | -86.66398 | 32043 ft | 366 kts | 272° |
| 2026-05-07 22:33 | 33.73974 | -86.72496 | 32035 ft | 366 kts | 272° |
| 2026-05-07 22:34 | 33.74421 | -86.78590 | 32027 ft | 366 kts | 272° |
| 2026-05-07 22:34 | 33.74870 | -86.84684 | 32033 ft | 366 kts | 272° |
| 2026-05-07 22:35 | 33.75316 | -86.90739 | 32018 ft | 366 kts | 272° |
| 2026-05-07 22:35 | 33.75745 | -86.96836 | 31989 ft | 366 kts | 272° |
| 2026-05-07 22:36 | 33.76188 | -87.02941 | 32011 ft | 367 kts | 272° |
| 2026-05-07 22:36 | 33.76629 | -87.09084 | 32007 ft | 367 kts | 272° |
| 2026-05-07 22:37 | 33.77059 | -87.15186 | 31991 ft | 367 kts | 272° |
| 2026-05-07 22:37 | 33.77479 | -87.21302 | 32031 ft | 367 kts | 272° |
| 2026-05-07 22:38 | 33.77899 | -87.27378 | 32045 ft | 368 kts | 272° |
| 2026-05-07 22:38 | 33.78327 | -87.33503 | 32049 ft | 368 kts | 272° |
| 2026-05-07 22:39 | 33.78757 | -87.39648 | 32044 ft | 369 kts | 272° |
| 2026-05-07 22:39 | 33.79167 | -87.45803 | 32036 ft | 369 kts | 272° |
| 2026-05-07 22:40 | 33.80104 | -87.51900 | 32039 ft | 373 kts | 279° |
| 2026-05-07 22:40 | 33.81380 | -87.57938 | 32024 ft | 373 kts | 279° |
| 2026-05-07 22:41 | 33.82645 | -87.63980 | 32005 ft | 372 kts | 279° |
| 2026-05-07 22:41 | 33.83899 | -87.70018 | 32010 ft | 372 kts | 279° |
| 2026-05-07 22:42 | 33.85156 | -87.76072 | 31994 ft | 373 kts | 279° |
| 2026-05-07 22:42 | 33.86403 | -87.82140 | 31994 ft | 373 kts | 279° |
| 2026-05-07 22:43 | 33.87650 | -87.88204 | 31996 ft | 373 kts | 279° |
| 2026-05-07 22:43 | 33.88904 | -87.94271 | 32002 ft | 373 kts | 279° |
| 2026-05-07 22:44 | 33.90147 | -88.00341 | 32005 ft | 374 kts | 279° |
| 2026-05-07 22:44 | 33.91385 | -88.06419 | 32009 ft | 374 kts | 279° |
| 2026-05-07 22:45 | 33.92618 | -88.12507 | 32002 ft | 375 kts | 279° |
| 2026-05-07 22:45 | 33.93859 | -88.18602 | 32008 ft | 375 kts | 279° |
| 2026-05-07 22:46 | 33.95103 | -88.24694 | 32025 ft | 374 kts | 279° |
| 2026-05-07 22:46 | 33.96334 | -88.30782 | 32010 ft | 374 kts | 279° |
| 2026-05-07 22:47 | 33.97346 | -88.35836 | 32010 ft | 373 kts | 279° |
| 2026-05-07 22:47 | 33.98760 | -88.42912 | 32010 ft | 373 kts | 278° |
| 2026-05-07 22:48 | 33.99783 | -88.48007 | 32023 ft | 373 kts | 278° |
| 2026-05-07 22:48 | 34.01007 | -88.54057 | 32022 ft | 374 kts | 278° |
| 2026-05-07 22:49 | 34.02226 | -88.60144 | 32031 ft | 374 kts | 278° |
| 2026-05-07 22:49 | 34.03435 | -88.66237 | 32041 ft | 374 kts | 278° |
| 2026-05-07 22:50 | 34.04647 | -88.72347 | 32044 ft | 374 kts | 278° |
| 2026-05-07 22:50 | 34.05851 | -88.78446 | 32048 ft | 374 kts | 278° |
| 2026-05-07 22:51 | 34.07057 | -88.84554 | 32048 ft | 374 kts | 278° |
| 2026-05-07 22:51 | 34.08257 | -88.90668 | 32047 ft | 375 kts | 278° |
| 2026-05-07 22:52 | 34.09461 | -88.96784 | 32045 ft | 375 kts | 278° |
| 2026-05-07 22:52 | 34.10657 | -89.02905 | 32048 ft | 375 kts | 278° |
| 2026-05-07 22:53 | 34.11845 | -89.09028 | 32041 ft | 374 kts | 278° |
| 2026-05-07 22:53 | 34.13037 | -89.15157 | 32045 ft | 375 kts | 278° |
| 2026-05-07 22:54 | 34.14221 | -89.21273 | 32041 ft | 374 kts | 278° |
| 2026-05-07 22:54 | 34.15399 | -89.27398 | 32051 ft | 374 kts | 278° |
| 2026-05-07 22:55 | 34.16581 | -89.33520 | 32061 ft | 374 kts | 278° |
| 2026-05-07 22:55 | 34.17767 | -89.39643 | 32070 ft | 374 kts | 278° |
| 2026-05-07 22:56 | 34.18937 | -89.45771 | 32075 ft | 374 kts | 278° |
| 2026-05-07 22:56 | 34.20124 | -89.51890 | 32072 ft | 375 kts | 279° |
| 2026-05-07 22:57 | 34.21561 | -89.57961 | 32124 ft | 376 kts | 280° |
| 2026-05-07 22:57 | 34.23018 | -89.63940 | 32085 ft | 369 kts | 280° |
| 2026-05-07 22:58 | 34.24454 | -89.69894 | 32075 ft | 369 kts | 280° |
| 2026-05-07 22:58 | 34.25846 | -89.75817 | 32057 ft | 369 kts | 280° |
| 2026-05-07 22:59 | 34.27285 | -89.81781 | 32059 ft | 369 kts | 280° |
| 2026-05-07 22:59 | 34.28723 | -89.87736 | 32061 ft | 369 kts | 280° |
| 2026-05-07 23:00 | 34.30163 | -89.93688 | 32060 ft | 369 kts | 280° |
| 2026-05-07 23:00 | 34.31591 | -89.99638 | 32059 ft | 369 kts | 280° |
| 2026-05-07 23:01 | 34.33017 | -90.05568 | 32062 ft | 366 kts | 280° |
| 2026-05-07 23:01 | 34.34436 | -90.11494 | 32057 ft | 366 kts | 279° |
| 2026-05-07 23:02 | 34.35829 | -90.17409 | 32064 ft | 366 kts | 279° |
| 2026-05-07 23:02 | 34.37225 | -90.23332 | 32068 ft | 366 kts | 279° |
| 2026-05-07 23:03 | 34.38622 | -90.29254 | 32078 ft | 366 kts | 279° |
| 2026-05-07 23:03 | 34.40050 | -90.35165 | 32079 ft | 366 kts | 280° |
| 2026-05-07 23:04 | 34.41442 | -90.41042 | 32081 ft | 364 kts | 279° |
| 2026-05-07 23:04 | 34.42833 | -90.46941 | 32087 ft | 364 kts | 279° |
| 2026-05-07 23:05 | 34.44205 | -90.52840 | 32085 ft | 364 kts | 279° |
| 2026-05-07 23:05 | 34.45588 | -90.58731 | 32071 ft | 363 kts | 279° |
| 2026-05-07 23:06 | 34.46966 | -90.64629 | 32078 ft | 364 kts | 279° |
| 2026-05-07 23:06 | 34.48337 | -90.70489 | 32088 ft | 357 kts | 279° |
| 2026-05-07 23:07 | 34.49679 | -90.76288 | 32067 ft | 358 kts | 279° |
| 2026-05-07 23:07 | 34.51024 | -90.82089 | 32071 ft | 357 kts | 279° |
| 2026-05-07 23:08 | 34.52375 | -90.87919 | 32070 ft | 356 kts | 279° |
| 2026-05-07 23:08 | 34.53697 | -90.93661 | 32077 ft | 356 kts | 279° |
| 2026-05-07 23:09 | 34.55033 | -90.99449 | 32085 ft | 356 kts | 279° |
| 2026-05-07 23:09 | 34.56362 | -91.05246 | 32082 ft | 356 kts | 279° |
| 2026-05-07 23:10 | 34.57685 | -91.11033 | 32071 ft | 356 kts | 279° |
| 2026-05-07 23:10 | 34.58987 | -91.16835 | 32073 ft | 356 kts | 279° |
| 2026-05-07 23:11 | 34.60310 | -91.22630 | 32081 ft | 356 kts | 279° |
| 2026-05-07 23:11 | 34.61624 | -91.28437 | 32096 ft | 356 kts | 278° |
| 2026-05-07 23:12 | 34.62934 | -91.34234 | 32081 ft | 356 kts | 279° |
| 2026-05-07 23:12 | 34.64264 | -91.40032 | 32096 ft | 356 kts | 279° |
| 2026-05-07 23:13 | 34.65587 | -91.45837 | 32089 ft | 356 kts | 279° |
| 2026-05-07 23:13 | 34.66889 | -91.51611 | 32095 ft | 356 kts | 279° |
| 2026-05-07 23:14 | 34.68201 | -91.57466 | 32083 ft | 358 kts | 278° |
| 2026-05-07 23:14 | 34.69507 | -91.63276 | 32085 ft | 358 kts | 278° |
| 2026-05-07 23:15 | 34.70808 | -91.69114 | 32095 ft | 358 kts | 278° |
| 2026-05-07 23:15 | 34.72066 | -91.74980 | 32083 ft | 358 kts | 278° |
| 2026-05-07 23:16 | 34.73371 | -91.80790 | 32106 ft | 356 kts | 279° |
| 2026-05-07 23:16 | 34.74680 | -91.86587 | 32081 ft | 356 kts | 279° |
| 2026-05-07 23:17 | 34.75979 | -91.92398 | 32048 ft | 356 kts | 279° |
| 2026-05-07 23:17 | 34.77264 | -91.98226 | 32055 ft | 357 kts | 278° |
| 2026-05-07 23:18 | 34.78547 | -92.04063 | 32052 ft | 357 kts | 279° |
| 2026-05-07 23:18 | 34.79838 | -92.09893 | 32061 ft | 357 kts | 278° |
| 2026-05-07 23:19 | 34.81024 | -92.15745 | 32057 ft | 353 kts | 274° |
| 2026-05-07 23:19 | 34.81591 | -92.21659 | 32060 ft | 352 kts | 271° |
| 2026-05-07 23:20 | 34.82085 | -92.27536 | 32059 ft | 352 kts | 272° |
| 2026-05-07 23:20 | 34.82632 | -92.33475 | 32061 ft | 353 kts | 272° |
| 2026-05-07 23:21 | 34.83184 | -92.39408 | 32060 ft | 353 kts | 272° |
| 2026-05-07 23:21 | 34.83701 | -92.45341 | 32057 ft | 352 kts | 271° |
| 2026-05-07 23:22 | 34.84218 | -92.51268 | 32055 ft | 352 kts | 272° |
| 2026-05-07 23:22 | 34.84745 | -92.57202 | 32054 ft | 352 kts | 272° |
| 2026-05-07 23:23 | 34.85250 | -92.63125 | 32048 ft | 352 kts | 272° |
| 2026-05-07 23:23 | 34.85759 | -92.69057 | 32046 ft | 353 kts | 272° |
| 2026-05-07 23:24 | 34.86283 | -92.75001 | 32046 ft | 353 kts | 272° |
| 2026-05-07 23:24 | 34.86788 | -92.80944 | 32040 ft | 353 kts | 272° |
| 2026-05-07 23:25 | 34.87310 | -92.86886 | 32042 ft | 353 kts | 272° |
| 2026-05-07 23:25 | 34.87827 | -92.92824 | 32051 ft | 353 kts | 272° |
| 2026-05-07 23:26 | 34.88347 | -92.98763 | 32051 ft | 353 kts | 272° |
| 2026-05-07 23:26 | 34.88848 | -93.04707 | 32040 ft | 353 kts | 271° |
| 2026-05-07 23:27 | 34.89593 | -93.13655 | 32037 ft | 355 kts | 271° |
| 2026-05-07 23:27 | 34.90095 | -93.19592 | 32034 ft | 354 kts | 271° |
| 2026-05-07 23:28 | 34.90589 | -93.25568 | 32028 ft | 354 kts | 271° |
| 2026-05-07 23:28 | 34.91084 | -93.31541 | 32035 ft | 355 kts | 271° |
| 2026-05-07 23:29 | 34.91546 | -93.37519 | 32034 ft | 354 kts | 271° |
| 2026-05-07 23:29 | 34.91998 | -93.43491 | 32026 ft | 354 kts | 271° |
| 2026-05-07 23:30 | 34.92420 | -93.48493 | 32026 ft | 354 kts | 271° |
| 2026-05-07 23:30 | 34.93004 | -93.55447 | 32033 ft | 355 kts | 271° |
| 2026-05-07 23:31 | 34.93412 | -93.60462 | 32032 ft | 355 kts | 271° |
| 2026-05-07 23:31 | 34.93879 | -93.66439 | 32060 ft | 354 kts | 271° |
| 2026-05-07 23:32 | 34.94344 | -93.72381 | 32028 ft | 355 kts | 271° |
| 2026-05-07 23:32 | 34.94817 | -93.78402 | 32019 ft | 354 kts | 271° |
| 2026-05-07 23:33 | 34.95284 | -93.84349 | 32025 ft | 355 kts | 271° |
| 2026-05-07 23:33 | 34.95747 | -93.90343 | 32030 ft | 355 kts | 271° |
| 2026-05-07 23:34 | 34.96207 | -93.96375 | 32020 ft | 356 kts | 271° |
| 2026-05-07 23:34 | 34.96669 | -94.02377 | 32028 ft | 356 kts | 271° |
| 2026-05-07 23:35 | 34.97113 | -94.08348 | 32028 ft | 356 kts | 271° |
| 2026-05-07 23:35 | 34.97568 | -94.14356 | 32033 ft | 356 kts | 271° |
| 2026-05-07 23:36 | 34.98020 | -94.20411 | 32031 ft | 356 kts | 271° |
| 2026-05-07 23:36 | 34.98467 | -94.26436 | 32046 ft | 357 kts | 271° |
| 2026-05-07 23:37 | 34.98907 | -94.32431 | 32052 ft | 357 kts | 271° |
| 2026-05-07 23:37 | 34.99351 | -94.38507 | 32052 ft | 357 kts | 271° |
| 2026-05-07 23:38 | 34.99790 | -94.44508 | 32054 ft | 357 kts | 271° |
| 2026-05-07 23:38 | 35.00226 | -94.50533 | 32061 ft | 357 kts | 271° |
| 2026-05-07 23:39 | 35.00663 | -94.56576 | 32057 ft | 357 kts | 271° |
| 2026-05-07 23:39 | 35.01090 | -94.62629 | 32056 ft | 359 kts | 270° |
| 2026-05-07 23:40 | 35.01581 | -94.68702 | 32068 ft | 361 kts | 274° |
| 2026-05-07 23:40 | 35.02401 | -94.74750 | 32040 ft | 362 kts | 274° |
| 2026-05-07 23:41 | 35.03238 | -94.80805 | 32029 ft | 363 kts | 274° |
| 2026-05-07 23:41 | 35.04061 | -94.86867 | 32039 ft | 361 kts | 274° |
| 2026-05-07 23:42 | 35.04871 | -94.92905 | 32031 ft | 361 kts | 274° |
| 2026-05-07 23:42 | 35.05689 | -94.98964 | 32037 ft | 363 kts | 274° |
| 2026-05-07 23:43 | 35.06509 | -95.05040 | 32030 ft | 363 kts | 274° |
| 2026-05-07 23:43 | 35.07333 | -95.11134 | 32024 ft | 364 kts | 274° |
| 2026-05-07 23:44 | 35.08138 | -95.17237 | 32027 ft | 364 kts | 274° |
| 2026-05-07 23:44 | 35.08949 | -95.23317 | 32033 ft | 363 kts | 274° |
| 2026-05-07 23:45 | 35.09759 | -95.29412 | 32033 ft | 364 kts | 274° |
| 2026-05-07 23:45 | 35.10558 | -95.35520 | 32030 ft | 364 kts | 274° |
| 2026-05-07 23:46 | 35.11351 | -95.41584 | 32035 ft | 364 kts | 274° |
| 2026-05-07 23:46 | 35.12156 | -95.47707 | 32027 ft | 364 kts | 274° |
| 2026-05-07 23:47 | 35.12885 | -95.53825 | 32055 ft | 366 kts | 274° |
| 2026-05-07 23:47 | 35.13618 | -95.59991 | 32039 ft | 366 kts | 274° |
| 2026-05-07 23:48 | 35.14354 | -95.66143 | 32037 ft | 366 kts | 274° |
| 2026-05-07 23:48 | 35.15079 | -95.72312 | 32019 ft | 367 kts | 273° |
| 2026-05-07 23:49 | 35.15811 | -95.78507 | 32036 ft | 369 kts | 274° |
| 2026-05-07 23:49 | 35.16537 | -95.84711 | 32035 ft | 369 kts | 273° |
| 2026-05-07 23:50 | 35.17257 | -95.90911 | 32037 ft | 369 kts | 274° |
| 2026-05-07 23:50 | 35.17983 | -95.97125 | 32032 ft | 369 kts | 274° |
| 2026-05-07 23:51 | 35.18673 | -96.03335 | 32034 ft | 369 kts | 273° |
| 2026-05-07 23:51 | 35.19399 | -96.09534 | 32021 ft | 369 kts | 274° |
| 2026-05-07 23:52 | 35.20118 | -96.15786 | 32026 ft | 372 kts | 273° |
| 2026-05-07 23:52 | 35.20831 | -96.22054 | 32028 ft | 372 kts | 273° |
| 2026-05-07 23:53 | 35.21543 | -96.28312 | 32026 ft | 372 kts | 273° |
| 2026-05-07 23:53 | 35.22251 | -96.34563 | 32025 ft | 372 kts | 273° |
| 2026-05-07 23:54 | 35.22950 | -96.40832 | 32024 ft | 372 kts | 273° |
| 2026-05-07 23:54 | 35.23652 | -96.47089 | 32018 ft | 372 kts | 273° |
| 2026-05-07 23:55 | 35.24367 | -96.53373 | 32019 ft | 373 kts | 273° |
| 2026-05-07 23:55 | 35.25062 | -96.59671 | 32021 ft | 373 kts | 273° |
| 2026-05-07 23:56 | 35.25762 | -96.65956 | 32023 ft | 373 kts | 273° |
| 2026-05-07 23:56 | 35.26451 | -96.72241 | 32024 ft | 373 kts | 273° |
| 2026-05-07 23:57 | 35.27127 | -96.78538 | 32020 ft | 373 kts | 273° |
| 2026-05-07 23:57 | 35.27468 | -96.81686 | 32132 ft | 373 kts | 273° |
| 2026-05-07 23:57 | 35.27816 | -96.84833 | 32392 ft | 373 kts | 272° |
| 2026-05-07 23:58 | 35.28156 | -96.87971 | 32651 ft | 372 kts | 272° |
| 2026-05-07 23:58 | 35.28500 | -96.91112 | 32912 ft | 372 kts | 272° |
| 2026-05-07 23:58 | 35.28842 | -96.94250 | 33174 ft | 370 kts | 272° |
| 2026-05-07 23:58 | 35.29171 | -96.97372 | 33436 ft | 369 kts | 272° |
| 2026-05-07 23:59 | 35.29508 | -97.00473 | 33720 ft | 367 kts | 272° |
| 2026-05-07 23:59 | 35.29848 | -97.03560 | 34020 ft | 365 kts | 272° |
| 2026-05-07 23:59 | 35.30507 | -97.09687 | 34050 ft | 362 kts | 272° |
| 2026-05-08 00:00 | 35.31145 | -97.15797 | 34023 ft | 362 kts | 272° |
| 2026-05-08 00:00 | 35.31784 | -97.21871 | 34014 ft | 362 kts | 272° |
| 2026-05-08 00:01 | 35.32428 | -97.28015 | 34017 ft | 362 kts | 272° |
| 2026-05-08 00:01 | 35.33076 | -97.34130 | 34022 ft | 362 kts | 272° |
| 2026-05-08 00:02 | 35.33718 | -97.40246 | 34006 ft | 362 kts | 271° |
| 2026-05-08 00:02 | 35.34339 | -97.46351 | 34005 ft | 362 kts | 272° |
| 2026-05-08 00:03 | 35.34971 | -97.52429 | 34004 ft | 362 kts | 272° |
| 2026-05-08 00:03 | 35.35607 | -97.58541 | 34001 ft | 362 kts | 272° |
| 2026-05-08 00:04 | 35.35815 | -97.64684 | 33998 ft | 360 kts | 265° |
| 2026-05-08 00:04 | 35.35711 | -97.70805 | 34008 ft | 360 kts | 265° |
| 2026-05-08 00:05 | 35.35615 | -97.76940 | 33999 ft | 360 kts | 265° |
| 2026-05-08 00:05 | 35.35526 | -97.83080 | 33987 ft | 360 kts | 265° |
| 2026-05-08 00:06 | 35.35426 | -97.89218 | 34000 ft | 360 kts | 265° |
| 2026-05-08 00:06 | 35.35327 | -97.95354 | 34000 ft | 360 kts | 265° |
| 2026-05-08 00:07 | 35.35222 | -98.01507 | 33987 ft | 363 kts | 265° |
| 2026-05-08 00:07 | 35.35120 | -98.07690 | 33988 ft | 363 kts | 265° |
| 2026-05-08 00:08 | 35.35009 | -98.13872 | 33988 ft | 363 kts | 265° |
| 2026-05-08 00:08 | 35.34899 | -98.20064 | 33986 ft | 363 kts | 265° |
| 2026-05-08 00:09 | 35.34789 | -98.26245 | 33987 ft | 363 kts | 265° |
| 2026-05-08 00:09 | 35.34666 | -98.32429 | 33990 ft | 363 kts | 265° |
| 2026-05-08 00:10 | 35.34547 | -98.38629 | 33988 ft | 366 kts | 265° |
| 2026-05-08 00:10 | 35.34426 | -98.44853 | 33984 ft | 366 kts | 265° |
| 2026-05-08 00:11 | 35.34299 | -98.51081 | 33985 ft | 366 kts | 265° |
| 2026-05-08 00:11 | 35.34166 | -98.57323 | 33980 ft | 366 kts | 265° |
| 2026-05-08 00:12 | 35.34056 | -98.62493 | 33984 ft | 366 kts | 265° |
| 2026-05-08 00:12 | 35.33918 | -98.68716 | 33978 ft | 365 kts | 264° |
| 2026-05-08 00:13 | 35.33780 | -98.74965 | 33974 ft | 369 kts | 265° |
| 2026-05-08 00:13 | 35.33639 | -98.81248 | 33971 ft | 369 kts | 265° |
| 2026-05-08 00:14 | 35.33493 | -98.87536 | 33977 ft | 369 kts | 264° |
| 2026-05-08 00:14 | 35.33346 | -98.93826 | 33968 ft | 369 kts | 265° |
| 2026-05-08 00:15 | 35.33193 | -99.00115 | 33986 ft | 369 kts | 264° |
| 2026-05-08 00:15 | 35.33029 | -99.06403 | 33986 ft | 369 kts | 264° |
| 2026-05-08 00:16 | 35.32870 | -99.12697 | 33985 ft | 372 kts | 264° |
| 2026-05-08 00:16 | 35.32701 | -99.19034 | 33990 ft | 372 kts | 264° |
| 2026-05-08 00:17 | 35.32535 | -99.25322 | 34000 ft | 372 kts | 264° |
| 2026-05-08 00:17 | 35.32363 | -99.31663 | 33990 ft | 373 kts | 264° |
| 2026-05-08 00:18 | 35.32191 | -99.37993 | 33967 ft | 372 kts | 264° |
| 2026-05-08 00:18 | 35.32004 | -99.44326 | 33969 ft | 372 kts | 264° |
| 2026-05-08 00:19 | 35.31827 | -99.50679 | 33974 ft | 374 kts | 264° |
| 2026-05-08 00:19 | 35.31637 | -99.57054 | 33975 ft | 375 kts | 264° |
| 2026-05-08 00:20 | 35.31447 | -99.63431 | 33966 ft | 375 kts | 264° |
| 2026-05-08 00:20 | 35.31249 | -99.69804 | 33969 ft | 375 kts | 264° |
| 2026-05-08 00:21 | 35.31054 | -99.76185 | 33963 ft | 375 kts | 264° |
| 2026-05-08 00:21 | 35.30854 | -99.82549 | 33961 ft | 374 kts | 264° |
| 2026-05-08 00:22 | 35.30646 | -99.88939 | 33969 ft | 376 kts | 264° |
| 2026-05-08 00:22 | 35.30440 | -99.95348 | 33968 ft | 377 kts | 264° |
| 2026-05-08 00:23 | 35.30232 | -100.01755 | 33960 ft | 377 kts | 264° |
| 2026-05-08 00:23 | 35.30041 | -100.07687 | 33963 ft | 377 kts | 264° |
| 2026-05-08 00:24 | 35.29822 | -100.14099 | 33970 ft | 377 kts | 264° |
| 2026-05-08 00:24 | 35.29598 | -100.20512 | 33962 ft | 377 kts | 264° |
| 2026-05-08 00:25 | 35.29375 | -100.26957 | 33965 ft | 380 kts | 264° |
| 2026-05-08 00:25 | 35.29144 | -100.33375 | 33964 ft | 380 kts | 264° |
| 2026-05-08 00:26 | 35.28906 | -100.39834 | 33960 ft | 380 kts | 264° |
| 2026-05-08 00:26 | 35.28668 | -100.46296 | 33961 ft | 380 kts | 264° |
| 2026-05-08 00:27 | 35.28426 | -100.52750 | 33969 ft | 380 kts | 264° |
| 2026-05-08 00:27 | 35.28187 | -100.59218 | 33946 ft | 381 kts | 264° |
| 2026-05-08 00:28 | 35.27933 | -100.65709 | 33959 ft | 382 kts | 264° |
| 2026-05-08 00:28 | 35.27684 | -100.72220 | 33970 ft | 382 kts | 264° |
| 2026-05-08 00:29 | 35.27424 | -100.78731 | 33960 ft | 384 kts | 264° |
| 2026-05-08 00:29 | 35.27163 | -100.85280 | 33956 ft | 385 kts | 264° |
| 2026-05-08 00:30 | 35.26901 | -100.91796 | 33953 ft | 385 kts | 264° |
| 2026-05-08 00:30 | 35.26635 | -100.98309 | 33956 ft | 385 kts | 264° |
| 2026-05-08 00:31 | 35.26365 | -101.04842 | 33952 ft | 385 kts | 264° |
| 2026-05-08 00:31 | 35.26088 | -101.11382 | 33946 ft | 385 kts | 264° |
| 2026-05-08 00:32 | 35.25808 | -101.17917 | 33947 ft | 385 kts | 264° |
| 2026-05-08 00:32 | 35.25530 | -101.24453 | 33947 ft | 385 kts | 264° |
| 2026-05-08 00:33 | 35.25247 | -101.30991 | 33953 ft | 385 kts | 264° |
| 2026-05-08 00:33 | 35.24954 | -101.37570 | 33968 ft | 388 kts | 264° |
| 2026-05-08 00:34 | 35.24657 | -101.44165 | 33978 ft | 388 kts | 264° |
| 2026-05-08 00:34 | 35.24358 | -101.50764 | 33994 ft | 388 kts | 264° |
| 2026-05-08 00:35 | 35.24056 | -101.57361 | 34007 ft | 388 kts | 264° |
| 2026-05-08 00:35 | 35.23749 | -101.63950 | 34011 ft | 388 kts | 264° |
| 2026-05-08 00:36 | 35.23456 | -101.70549 | 34011 ft | 392 kts | 265° |
| 2026-05-08 00:36 | 35.23299 | -101.77221 | 34008 ft | 393 kts | 265° |
| 2026-05-08 00:37 | 35.23146 | -101.83908 | 34007 ft | 393 kts | 265° |
| 2026-05-08 00:38 | 35.22897 | -101.93890 | 33982 ft | 393 kts | 265° |
| 2026-05-08 00:38 | 35.22720 | -102.00567 | 33972 ft | 393 kts | 265° |
| 2026-05-08 00:39 | 35.22549 | -102.07261 | 33954 ft | 395 kts | 265° |
| 2026-05-08 00:39 | 35.22370 | -102.13979 | 33945 ft | 396 kts | 265° |
| 2026-05-08 00:40 | 35.22184 | -102.20709 | 33951 ft | 396 kts | 265° |
| 2026-05-08 00:40 | 35.22000 | -102.27426 | 33943 ft | 396 kts | 265° |
| 2026-05-08 00:41 | 35.21813 | -102.34157 | 33953 ft | 396 kts | 265° |
| 2026-05-08 00:41 | 35.21620 | -102.40889 | 33955 ft | 396 kts | 265° |
| 2026-05-08 00:42 | 35.21414 | -102.47698 | 33954 ft | 403 kts | 266° |
| 2026-05-08 00:42 | 35.21222 | -102.54550 | 33954 ft | 404 kts | 266° |
| 2026-05-08 00:43 | 35.21010 | -102.61414 | 33952 ft | 403 kts | 265° |
| 2026-05-08 00:43 | 35.20798 | -102.68227 | 33955 ft | 404 kts | 265° |
| 2026-05-08 00:44 | 35.20586 | -102.75087 | 33955 ft | 404 kts | 265° |
| 2026-05-08 00:44 | 35.20360 | -102.81970 | 33953 ft | 410 kts | 266° |
| 2026-05-08 00:45 | 35.20132 | -102.88953 | 33955 ft | 411 kts | 266° |
| 2026-05-08 00:45 | 35.19899 | -102.95937 | 33947 ft | 411 kts | 266° |
| 2026-05-08 00:46 | 35.19661 | -103.02935 | 33947 ft | 411 kts | 266° |
| 2026-05-08 00:46 | 35.19420 | -103.09922 | 33936 ft | 411 kts | 266° |
| 2026-05-08 00:47 | 35.19174 | -103.16916 | 33933 ft | 416 kts | 266° |
| 2026-05-08 00:47 | 35.18920 | -103.24033 | 33942 ft | 419 kts | 266° |
| 2026-05-08 00:48 | 35.18666 | -103.31164 | 33952 ft | 420 kts | 266° |
| 2026-05-08 00:48 | 35.18406 | -103.38286 | 33964 ft | 420 kts | 266° |
| 2026-05-08 00:49 | 35.18138 | -103.45412 | 33979 ft | 419 kts | 266° |
| 2026-05-08 00:49 | 35.17867 | -103.52550 | 33988 ft | 423 kts | 266° |
| 2026-05-08 00:50 | 35.17589 | -103.59758 | 33991 ft | 425 kts | 266° |
| 2026-05-08 00:50 | 35.17308 | -103.66930 | 33990 ft | 426 kts | 266° |
| 2026-05-08 00:51 | 35.17022 | -103.74160 | 33982 ft | 425 kts | 266° |
| 2026-05-08 00:51 | 35.16727 | -103.81383 | 33960 ft | 426 kts | 266° |
| 2026-05-08 00:52 | 35.16432 | -103.88611 | 33938 ft | 429 kts | 267° |
| 2026-05-08 00:52 | 35.16131 | -103.95958 | 33918 ft | 434 kts | 267° |
| 2026-05-08 00:53 | 35.15823 | -104.03326 | 33897 ft | 434 kts | 267° |
| 2026-05-08 00:53 | 35.15510 | -104.10690 | 33891 ft | 434 kts | 266° |
| 2026-05-08 00:54 | 35.15184 | -104.18048 | 33886 ft | 433 kts | 266° |
| 2026-05-08 00:54 | 35.14859 | -104.25418 | 33879 ft | 438 kts | 267° |
| 2026-05-08 00:55 | 35.14527 | -104.32879 | 33894 ft | 440 kts | 267° |
| 2026-05-08 00:55 | 35.14188 | -104.40344 | 33908 ft | 440 kts | 267° |
| 2026-05-08 00:56 | 35.13851 | -104.47797 | 33923 ft | 440 kts | 267° |
| 2026-05-08 00:56 | 35.13507 | -104.55266 | 33936 ft | 439 kts | 267° |
| 2026-05-08 00:57 | 35.13154 | -104.62717 | 33943 ft | 439 kts | 267° |
| 2026-05-08 00:57 | 35.12800 | -104.70169 | 33945 ft | 439 kts | 267° |
| 2026-05-08 00:58 | 35.12441 | -104.77611 | 33938 ft | 439 kts | 267° |
| 2026-05-08 00:58 | 35.12079 | -104.85065 | 33923 ft | 440 kts | 267° |
| 2026-05-08 00:59 | 35.11778 | -104.91261 | 33910 ft | 440 kts | 267° |
| 2026-05-08 00:59 | 35.11407 | -104.98749 | 33897 ft | 444 kts | 267° |
| 2026-05-08 01:00 | 35.11080 | -105.06286 | 33885 ft | 444 kts | 268° |
| 2026-05-08 01:00 | 35.10826 | -105.13818 | 33897 ft | 444 kts | 268° |
| 2026-05-08 01:01 | 35.10584 | -105.21349 | 33899 ft | 444 kts | 268° |
| 2026-05-08 01:01 | 35.10336 | -105.28882 | 33912 ft | 444 kts | 268° |
| 2026-05-08 01:02 | 35.10081 | -105.36468 | 33938 ft | 449 kts | 269° |
| 2026-05-08 01:02 | 35.09828 | -105.44043 | 33939 ft | 450 kts | 269° |
| 2026-05-08 01:03 | 35.09562 | -105.51722 | 33960 ft | 450 kts | 269° |
| 2026-05-08 01:03 | 35.09292 | -105.59304 | 33961 ft | 450 kts | 269° |
| 2026-05-08 01:04 | 35.09017 | -105.66983 | 33979 ft | 452 kts | 269° |
| 2026-05-08 01:04 | 35.08742 | -105.74675 | 33982 ft | 453 kts | 269° |
| 2026-05-08 01:05 | 35.08454 | -105.82361 | 33987 ft | 453 kts | 269° |
| 2026-05-08 01:05 | 35.08165 | -105.90063 | 33989 ft | 453 kts | 269° |
| 2026-05-08 01:06 | 35.07873 | -105.97747 | 33980 ft | 453 kts | 269° |
| 2026-05-08 01:06 | 35.07569 | -106.05452 | 33980 ft | 457 kts | 269° |
| 2026-05-08 01:07 | 35.07259 | -106.13210 | 33975 ft | 457 kts | 269° |
| 2026-05-08 01:07 | 35.06951 | -106.20964 | 33973 ft | 457 kts | 269° |
| 2026-05-08 01:08 | 35.06633 | -106.28707 | 33995 ft | 457 kts | 269° |
| 2026-05-08 01:08 | 35.06307 | -106.36457 | 34012 ft | 458 kts | 269° |
| 2026-05-08 01:09 | 35.05981 | -106.44247 | 34037 ft | 460 kts | 269° |
| 2026-05-08 01:09 | 35.05648 | -106.51991 | 34055 ft | 460 kts | 269° |
| 2026-05-08 01:10 | 35.05313 | -106.59780 | 34061 ft | 460 kts | 269° |
| 2026-05-08 01:10 | 35.04970 | -106.67573 | 34057 ft | 460 kts | 269° |
| 2026-05-08 01:11 | 35.04619 | -106.75370 | 34071 ft | 462 kts | 269° |
| 2026-05-08 01:11 | 35.04293 | -106.83211 | 34067 ft | 462 kts | 270° |
| 2026-05-08 01:12 | 35.04095 | -106.91055 | 33915 ft | 462 kts | 271° |
| 2026-05-08 01:12 | 35.03909 | -106.98888 | 33904 ft | 461 kts | 271° |
| 2026-05-08 01:13 | 35.03712 | -107.06688 | 33903 ft | 460 kts | 271° |
| 2026-05-08 01:13 | 35.03510 | -107.14514 | 33906 ft | 462 kts | 271° |
| 2026-05-08 01:14 | 35.03298 | -107.22359 | 33917 ft | 463 kts | 271° |
| 2026-05-08 01:14 | 35.03077 | -107.30208 | 33917 ft | 463 kts | 271° |
| 2026-05-08 01:15 | 35.02852 | -107.38057 | 33929 ft | 463 kts | 271° |
| 2026-05-08 01:15 | 35.02629 | -107.45919 | 33929 ft | 465 kts | 271° |
| 2026-05-08 01:16 | 35.02400 | -107.53801 | 33934 ft | 465 kts | 271° |
| 2026-05-08 01:16 | 35.02164 | -107.61683 | 33941 ft | 465 kts | 271° |
| 2026-05-08 01:17 | 35.01920 | -107.69535 | 33937 ft | 465 kts | 271° |
| 2026-05-08 01:17 | 35.01671 | -107.77418 | 33938 ft | 466 kts | 271° |
| 2026-05-08 01:18 | 35.01420 | -107.85323 | 33948 ft | 467 kts | 271° |
| 2026-05-08 01:18 | 35.01161 | -107.93246 | 33945 ft | 467 kts | 271° |
| 2026-05-08 01:19 | 35.00896 | -108.01168 | 33951 ft | 467 kts | 271° |
| 2026-05-08 01:19 | 35.00631 | -108.09035 | 33941 ft | 467 kts | 271° |
| 2026-05-08 01:20 | 35.00372 | -108.16938 | 33940 ft | 467 kts | 271° |
| 2026-05-08 01:20 | 35.00092 | -108.24863 | 33941 ft | 467 kts | 271° |
| 2026-05-08 01:21 | 34.99800 | -108.32779 | 33942 ft | 467 kts | 270° |
| 2026-05-08 01:21 | 34.99508 | -108.40687 | 33943 ft | 467 kts | 271° |
| 2026-05-08 01:22 | 34.99213 | -108.48622 | 33939 ft | 469 kts | 271° |
| 2026-05-08 01:22 | 34.98904 | -108.56576 | 33938 ft | 469 kts | 271° |
| 2026-05-08 01:23 | 34.98595 | -108.64528 | 33938 ft | 469 kts | 271° |
| 2026-05-08 01:23 | 34.98285 | -108.72482 | 33936 ft | 469 kts | 271° |
| 2026-05-08 01:24 | 34.97971 | -108.80387 | 33940 ft | 471 kts | 271° |
| 2026-05-08 01:24 | 34.97647 | -108.88375 | 33933 ft | 472 kts | 271° |
| 2026-05-08 01:25 | 34.97320 | -108.96371 | 33933 ft | 472 kts | 271° |
| 2026-05-08 01:25 | 34.96981 | -109.04407 | 33930 ft | 472 kts | 271° |
| 2026-05-08 01:26 | 34.96645 | -109.12383 | 33922 ft | 468 kts | 271° |
| 2026-05-08 01:26 | 34.96198 | -109.20279 | 33929 ft | 471 kts | 269° |
| 2026-05-08 01:27 | 34.95670 | -109.28236 | 33932 ft | 471 kts | 269° |
| 2026-05-08 01:27 | 34.95154 | -109.36205 | 33929 ft | 471 kts | 269° |
| 2026-05-08 01:28 | 34.94640 | -109.44171 | 33938 ft | 471 kts | 269° |
| 2026-05-08 01:28 | 34.94095 | -109.52156 | 33937 ft | 473 kts | 269° |
| 2026-05-08 01:29 | 34.93551 | -109.60158 | 33946 ft | 477 kts | 269° |
| 2026-05-08 01:29 | 34.93003 | -109.68250 | 33947 ft | 479 kts | 269° |
| 2026-05-08 01:30 | 34.92429 | -109.76339 | 33937 ft | 478 kts | 269° |
| 2026-05-08 01:30 | 34.91850 | -109.84419 | 33941 ft | 479 kts | 269° |
| 2026-05-08 01:31 | 34.91239 | -109.92511 | 33942 ft | 480 kts | 269° |
| 2026-05-08 01:31 | 34.90656 | -110.00593 | 33939 ft | 479 kts | 269° |
| 2026-05-08 01:32 | 34.90070 | -110.08687 | 33940 ft | 479 kts | 269° |
| 2026-05-08 01:32 | 34.89471 | -110.16727 | 33941 ft | 476 kts | 269° |
| 2026-05-08 01:33 | 34.88898 | -110.24768 | 33951 ft | 476 kts | 269° |
| 2026-05-08 01:33 | 34.88327 | -110.32795 | 33947 ft | 476 kts | 269° |
| 2026-05-08 01:34 | 34.87701 | -110.40808 | 33952 ft | 476 kts | 268° |
| 2026-05-08 01:34 | 34.87060 | -110.48839 | 33960 ft | 476 kts | 269° |
| 2026-05-08 01:35 | 34.86445 | -110.56826 | 33960 ft | 477 kts | 269° |
| 2026-05-08 01:35 | 34.85825 | -110.64866 | 34041 ft | 477 kts | 269° |
| 2026-05-08 01:36 | 34.85211 | -110.72904 | 34053 ft | 477 kts | 269° |
| 2026-05-08 01:36 | 34.84584 | -110.80927 | 34056 ft | 477 kts | 269° |
| 2026-05-08 01:37 | 34.83942 | -110.88957 | 34042 ft | 477 kts | 268° |
| 2026-05-08 01:37 | 34.83287 | -110.96987 | 34017 ft | 477 kts | 268° |
| 2026-05-08 01:38 | 34.82639 | -111.05016 | 34002 ft | 476 kts | 269° |
| 2026-05-08 01:38 | 34.81996 | -111.13048 | 33988 ft | 477 kts | 268° |
| 2026-05-08 01:39 | 34.81338 | -111.21065 | 33996 ft | 476 kts | 269° |
| 2026-05-08 01:39 | 34.80694 | -111.29092 | 33983 ft | 476 kts | 269° |
| 2026-05-08 01:40 | 34.80047 | -111.37056 | 33985 ft | 476 kts | 268° |
| 2026-05-08 01:40 | 34.79361 | -111.45065 | 33963 ft | 476 kts | 268° |
| 2026-05-08 01:41 | 34.78689 | -111.53063 | 33968 ft | 474 kts | 268° |
| 2026-05-08 01:41 | 34.78022 | -111.61040 | 34020 ft | 473 kts | 268° |
| 2026-05-08 01:42 | 34.77323 | -111.69010 | 34042 ft | 474 kts | 268° |
| 2026-05-08 01:42 | 34.76626 | -111.76966 | 34050 ft | 474 kts | 268° |
| 2026-05-08 01:43 | 34.75938 | -111.84944 | 34040 ft | 475 kts | 268° |
| 2026-05-08 01:43 | 34.75246 | -111.92935 | 34024 ft | 475 kts | 268° |
| 2026-05-08 01:44 | 34.74657 | -111.99586 | 33996 ft | 476 kts | 268° |
| 2026-05-08 01:44 | 34.73923 | -112.07580 | 33953 ft | 476 kts | 268° |
| 2026-05-08 01:45 | 34.73210 | -112.15571 | 33978 ft | 476 kts | 268° |
| 2026-05-08 01:45 | 34.72493 | -112.23582 | 34013 ft | 477 kts | 268° |
| 2026-05-08 01:46 | 34.71762 | -112.31602 | 34054 ft | 477 kts | 268° |
| 2026-05-08 01:46 | 34.71003 | -112.39613 | 34070 ft | 477 kts | 268° |
| 2026-05-08 01:47 | 34.70247 | -112.47639 | 34048 ft | 477 kts | 266° |
| 2026-05-08 01:47 | 34.69806 | -112.51621 | 33914 ft | 474 kts | 266° |
| 2026-05-08 01:47 | 34.69373 | -112.55592 | 33914 ft | 474 kts | 266° |
| 2026-05-08 01:48 | 34.68053 | -112.67508 | 33901 ft | 476 kts | 266° |
| 2026-05-08 01:48 | 34.67125 | -112.75550 | 33906 ft | 484 kts | 265° |
| 2026-05-08 01:49 | 34.66192 | -112.83612 | 33885 ft | 479 kts | 265° |
| 2026-05-08 01:49 | 34.65275 | -112.91605 | 33888 ft | 477 kts | 265° |
| 2026-05-08 01:50 | 34.64353 | -112.99602 | 33883 ft | 477 kts | 265° |
| 2026-05-08 01:50 | 34.63421 | -113.07570 | 33881 ft | 477 kts | 265° |
| 2026-05-08 01:51 | 34.62476 | -113.15567 | 33864 ft | 479 kts | 265° |
| 2026-05-08 01:51 | 34.61534 | -113.23561 | 33867 ft | 478 kts | 265° |
| 2026-05-08 01:52 | 34.60600 | -113.31480 | 33851 ft | 476 kts | 265° |
| 2026-05-08 01:52 | 34.59642 | -113.39480 | 33836 ft | 475 kts | 265° |
| 2026-05-08 01:53 | 34.58699 | -113.47419 | 33836 ft | 477 kts | 265° |
| 2026-05-08 01:53 | 34.57742 | -113.55415 | 33824 ft | 479 kts | 265° |
| 2026-05-08 01:54 | 34.56775 | -113.63360 | 33819 ft | 479 kts | 265° |
| 2026-05-08 01:54 | 34.55801 | -113.71355 | 33819 ft | 479 kts | 265° |
| 2026-05-08 01:55 | 34.54819 | -113.79385 | 33808 ft | 477 kts | 265° |
| 2026-05-08 01:55 | 34.53832 | -113.87342 | 33810 ft | 476 kts | 265° |
| 2026-05-08 01:56 | 34.52850 | -113.95255 | 33805 ft | 475 kts | 265° |
| 2026-05-08 01:56 | 34.51861 | -114.03114 | 33806 ft | 475 kts | 264° |
| 2026-05-08 01:57 | 34.50410 | -114.10946 | 33800 ft | 473 kts | 258° |
| 2026-05-08 01:57 | 34.48776 | -114.18651 | 33807 ft | 471 kts | 259° |
| 2026-05-08 01:58 | 34.47169 | -114.26357 | 33816 ft | 472 kts | 258° |
| 2026-05-08 01:58 | 34.45523 | -114.34049 | 33817 ft | 472 kts | 258° |
| 2026-05-08 01:59 | 34.43875 | -114.41751 | 33788 ft | 474 kts | 258° |
| 2026-05-08 01:59 | 34.42211 | -114.49502 | 33787 ft | 475 kts | 258° |
| 2026-05-08 02:00 | 34.40555 | -114.57246 | 33784 ft | 475 kts | 258° |
| 2026-05-08 02:00 | 34.38899 | -114.64996 | 33793 ft | 475 kts | 258° |
| 2026-05-08 02:01 | 34.37202 | -114.72724 | 33792 ft | 475 kts | 258° |
| 2026-05-08 02:01 | 34.35528 | -114.80455 | 33807 ft | 475 kts | 258° |
| 2026-05-08 02:02 | 34.33868 | -114.88191 | 33805 ft | 475 kts | 258° |
| 2026-05-08 02:02 | 34.32187 | -114.95874 | 33801 ft | 474 kts | 258° |
| 2026-05-08 02:03 | 34.30494 | -115.03577 | 33810 ft | 475 kts | 258° |
| 2026-05-08 02:03 | 34.28777 | -115.11312 | 33811 ft | 476 kts | 258° |
| 2026-05-08 02:04 | 34.27072 | -115.19063 | 33817 ft | 476 kts | 258° |
| 2026-05-08 02:04 | 34.25385 | -115.26812 | 33817 ft | 476 kts | 258° |
| 2026-05-08 02:05 | 34.23757 | -115.34575 | 33812 ft | 474 kts | 258° |
| 2026-05-08 02:05 | 34.22117 | -115.42200 | 33821 ft | 464 kts | 258° |
| 2026-05-08 02:06 | 34.20504 | -115.49737 | 33826 ft | 467 kts | 258° |
| 2026-05-08 02:06 | 34.18881 | -115.57315 | 33836 ft | 470 kts | 258° |
| 2026-05-08 02:07 | 34.17228 | -115.64953 | 33825 ft | 470 kts | 258° |
| 2026-05-08 02:07 | 34.16005 | -115.72626 | 33844 ft | 463 kts | 266° |
| 2026-05-08 02:08 | 34.15253 | -115.80360 | 33880 ft | 464 kts | 266° |
| 2026-05-08 02:08 | 34.14465 | -115.88094 | 33904 ft | 464 kts | 266° |
| 2026-05-08 02:09 | 34.13711 | -115.95836 | 33908 ft | 464 kts | 266° |
| 2026-05-08 02:09 | 34.12968 | -116.03554 | 33939 ft | 462 kts | 266° |
| 2026-05-08 02:10 | 34.12217 | -116.11228 | 33951 ft | 461 kts | 266° |
| 2026-05-08 02:10 | 34.11841 | -116.15067 | 33690 ft | 459 kts | 266° |
| 2026-05-08 02:10 | 34.11461 | -116.18910 | 33379 ft | 463 kts | 265° |
| 2026-05-08 02:11 | 34.11069 | -116.22783 | 33061 ft | 465 kts | 265° |
| 2026-05-08 02:11 | 34.10682 | -116.26646 | 32468 ft | 462 kts | 265° |
| 2026-05-08 02:11 | 34.10300 | -116.30478 | 31824 ft | 460 kts | 265° |
| 2026-05-08 02:11 | 34.09896 | -116.34304 | 31179 ft | 458 kts | 265° |
| 2026-05-08 02:12 | 34.09483 | -116.38110 | 30545 ft | 456 kts | 265° |
| 2026-05-08 02:12 | 34.09076 | -116.41889 | 29928 ft | 455 kts | 265° |
| 2026-05-08 02:12 | 34.08673 | -116.45666 | 29232 ft | 452 kts | 265° |
| 2026-05-08 02:12 | 34.08272 | -116.49427 | 28586 ft | 452 kts | 265° |
| 2026-05-08 02:13 | 34.07868 | -116.53192 | 27988 ft | 454 kts | 265° |
| 2026-05-08 02:13 | 34.07459 | -116.56969 | 27382 ft | 456 kts | 265° |
| 2026-05-08 02:13 | 34.07070 | -116.60749 | 26796 ft | 451 kts | 266° |
| 2026-05-08 02:13 | 34.06718 | -116.64491 | 26237 ft | 446 kts | 266° |
| 2026-05-08 02:14 | 34.06377 | -116.68170 | 25792 ft | 436 kts | 266° |
| 2026-05-08 02:14 | 34.06053 | -116.71707 | 25397 ft | 426 kts | 266° |
| 2026-05-08 02:14 | 34.05726 | -116.75282 | 24762 ft | 423 kts | 266° |
| 2026-05-08 02:14 | 34.05399 | -116.78806 | 24155 ft | 420 kts | 266° |
| 2026-05-08 02:15 | 34.05074 | -116.82281 | 23589 ft | 415 kts | 266° |
| 2026-05-08 02:15 | 34.04760 | -116.85726 | 22966 ft | 411 kts | 266° |
| 2026-05-08 02:15 | 34.04439 | -116.89090 | 22408 ft | 407 kts | 264° |
| 2026-05-08 02:15 | 34.04030 | -116.92459 | 21865 ft | 403 kts | 263° |
| 2026-05-08 02:16 | 34.03607 | -116.95783 | 21345 ft | 400 kts | 263° |
| 2026-05-08 02:16 | 34.03182 | -116.99084 | 20823 ft | 397 kts | 263° |
| 2026-05-08 02:16 | 34.02754 | -117.02344 | 20335 ft | 393 kts | 263° |
| 2026-05-08 02:16 | 34.02334 | -117.05595 | 19838 ft | 390 kts | 263° |
| 2026-05-08 02:17 | 34.01950 | -117.08829 | 19342 ft | 388 kts | 264° |
| 2026-05-08 02:17 | 34.01582 | -117.12056 | 18847 ft | 387 kts | 264° |
| 2026-05-08 02:17 | 34.01211 | -117.15265 | 18395 ft | 386 kts | 263° |
| 2026-05-08 02:17 | 34.00835 | -117.18467 | 17868 ft | 385 kts | 263° |
| 2026-05-08 02:18 | 34.00453 | -117.21633 | 17430 ft | 378 kts | 263° |
| 2026-05-08 02:18 | 34.00075 | -117.24764 | 16935 ft | 377 kts | 263° |
| 2026-05-08 02:18 | 33.99704 | -117.27896 | 16445 ft | 375 kts | 263° |
| 2026-05-08 02:18 | 33.99334 | -117.30983 | 15942 ft | 371 kts | 263° |
| 2026-05-08 02:19 | 33.98973 | -117.34062 | 15536 ft | 371 kts | 263° |
| 2026-05-08 02:19 | 33.98616 | -117.37125 | 15103 ft | 367 kts | 263° |
| 2026-05-08 02:19 | 33.98256 | -117.40160 | 14627 ft | 363 kts | 263° |
| 2026-05-08 02:19 | 33.97902 | -117.43156 | 14135 ft | 359 kts | 263° |
| 2026-05-08 02:20 | 33.97554 | -117.46125 | 13662 ft | 355 kts | 263° |
| 2026-05-08 02:20 | 33.97374 | -117.49043 | 13326 ft | 344 kts | 275° |
| 2026-05-08 02:20 | 33.97828 | -117.51816 | 12928 ft | 335 kts | 286° |
| 2026-05-08 02:20 | 33.98463 | -117.54484 | 12489 ft | 330 kts | 288° |
| 2026-05-08 02:21 | 33.99111 | -117.57124 | 12018 ft | 327 kts | 288° |
| 2026-05-08 02:21 | 33.99752 | -117.59719 | 11611 ft | 324 kts | 288° |
| 2026-05-08 02:21 | 34.00365 | -117.62217 | 11275 ft | 310 kts | 288° |
| 2026-05-08 02:21 | 34.00947 | -117.64632 | 10992 ft | 297 kts | 287° |
| 2026-05-08 02:22 | 34.01510 | -117.66988 | 10717 ft | 291 kts | 287° |
| 2026-05-08 02:22 | 34.02031 | -117.69347 | 10394 ft | 291 kts | 282° |
| 2026-05-08 02:22 | 34.02077 | -117.71774 | 10068 ft | 292 kts | 266° |
| 2026-05-08 02:22 | 34.01836 | -117.74202 | 9725 ft | 288 kts | 264° |
| 2026-05-08 02:23 | 34.01582 | -117.76586 | 9316 ft | 285 kts | 265° |
| 2026-05-08 02:23 | 34.01338 | -117.78946 | 8944 ft | 282 kts | 265° |
| 2026-05-08 02:23 | 34.01097 | -117.81319 | 8574 ft | 281 kts | 265° |
| 2026-05-08 02:23 | 34.00945 | -117.82860 | 8332 ft | 279 kts | 265° |
| 2026-05-08 02:24 | 34.00641 | -117.85939 | 7816 ft | 275 kts | 265° |
| 2026-05-08 02:24 | 34.00490 | -117.87449 | 7553 ft | 273 kts | 265° |
| 2026-05-08 02:24 | 34.00266 | -117.89716 | 7162 ft | 271 kts | 265° |
| 2026-05-08 02:24 | 34.00042 | -117.91934 | 6923 ft | 262 kts | 265° |
| 2026-05-08 02:25 | 33.99751 | -117.94783 | 6517 ft | 256 kts | 265° |
| 2026-05-08 02:25 | 33.99608 | -117.96212 | 6268 ft | 255 kts | 265° |
| 2026-05-08 02:25 | 33.99396 | -117.98334 | 6000 ft | 254 kts | 265° |
| 2026-05-08 02:25 | 33.99195 | -118.00353 | 5878 ft | 255 kts | 264° |
| 2026-05-08 02:26 | 33.98989 | -118.02468 | 5562 ft | 252 kts | 265° |
| 2026-05-08 02:26 | 33.98783 | -118.04561 | 5206 ft | 250 kts | 264° |
| 2026-05-08 02:26 | 33.98592 | -118.06569 | 4872 ft | 248 kts | 265° |
| 2026-05-08 02:26 | 33.98464 | -118.08361 | 4651 ft | 240 kts | 265° |
| 2026-05-08 02:27 | 33.98271 | -118.10336 | 4279 ft | 236 kts | 264° |
| 2026-05-08 02:27 | 33.98072 | -118.12296 | 3901 ft | 235 kts | 264° |
| 2026-05-08 02:27 | 33.97872 | -118.14258 | 3703 ft | 237 kts | 264° |
| 2026-05-08 02:27 | 33.97670 | -118.16225 | 3717 ft | 234 kts | 264° |
| 2026-05-08 02:28 | 33.97477 | -118.18100 | 3576 ft | 216 kts | 265° |
| 2026-05-08 02:28 | 33.97299 | -118.19845 | 3361 ft | 205 kts | 264° |
| 2026-05-08 02:28 | 33.97129 | -118.21488 | 3183 ft | 191 kts | 265° |
| 2026-05-08 02:28 | 33.96973 | -118.23007 | 2947 ft | 181 kts | 265° |
| 2026-05-08 02:29 | 33.96817 | -118.24529 | 2695 ft | 180 kts | 264° |
| 2026-05-08 02:29 | 33.96663 | -118.26037 | 2448 ft | 183 kts | 263° |
| 2026-05-08 02:29 | 33.96506 | -118.27564 | 2246 ft | 182 kts | 263° |
| 2026-05-08 02:29 | 33.96360 | -118.28990 | 2003 ft | 160 kts | 262° |
| 2026-05-08 02:30 | 33.96230 | -118.30250 | 1735 ft | 137 kts | 262° |
| 2026-05-08 02:30 | 33.96115 | -118.31370 | 1523 ft | 133 kts | 262° |
| 2026-05-08 02:30 | 33.96000 | -118.32487 | 1365 ft | 135 kts | 262° |
| 2026-05-08 02:30 | 33.95886 | -118.33603 | 1190 ft | 134 kts | 262° |
| 2026-05-08 02:31 | 33.95773 | -118.34697 | 1035 ft | 134 kts | 262° |
| 2026-05-08 02:31 | 33.95662 | -118.35783 | 856 ft | 131 kts | 262° |
| 2026-05-08 02:31 | 33.95554 | -118.36831 | 686 ft | 127 kts | 262° |
| 2026-05-08 02:31 | 33.95467 | -118.37689 | 536 ft | 128 kts | 262° |
| 2026-05-08 02:32 | 33.95360 | -118.38738 | 380 ft | 125 kts | 263° |
| 2026-05-08 02:32 | 33.95264 | -118.39705 | 215 ft | 126 kts | 262° |
| 2026-05-08 02:32 | 33.95225 | -118.40098 | 159 ft | 126 kts | 261° |
| 2026-05-08 02:32 | 33.95138 | -118.40926 | 101 ft | 118 kts | 261° |
| 2026-05-08 02:33 | 33.95065 | -118.41636 | 99 ft | 67 kts | 262° |
| 2026-05-08 02:33 | 33.95032 | -118.41942 | 100 ft | 42 kts | 261° |
| 2026-05-08 02:33 | 33.94949 | -118.42182 | 102 ft | 23 kts | 225° |
| 2026-05-08 02:33 | 33.94856 | -118.42271 | 100 ft | 18 kts | 194° |
| 2026-05-08 02:34 | 33.94726 | -118.42273 | 100 ft | 15 kts | 163° |
| 2026-05-08 02:34 | 33.94689 | -118.42182 | 102 ft | 14 kts | 84° |
| 2026-05-08 02:34 | 33.94701 | -118.42054 | 99 ft | 16 kts | 84° |
| 2026-05-08 02:34 | 33.94716 | -118.41909 | 99 ft | 19 kts | 82° |
| 2026-05-08 02:35 | 33.94731 | -118.41747 | 102 ft | 20 kts | 83° |
| 2026-05-08 02:35 | 33.94749 | -118.41568 | 102 ft | 22 kts | 83° |
| 2026-05-08 02:35 | 33.94777 | -118.41377 | 100 ft | 24 kts | 70° |
| 2026-05-08 02:35 | 33.94804 | -118.41171 | 103 ft | 24 kts | 82° |
| 2026-05-08 02:36 | 33.94820 | -118.41027 | 101 ft | 17 kts | 83° |
| 2026-05-08 02:36 | 33.94819 | -118.40914 | 100 ft | 9 kts | 122° |
| 2026-05-08 02:36 | 33.94767 | -118.40855 | 101 ft | 11 kts | 122° |
| 2026-05-08 02:36 | 33.94765 | -118.40758 | 101 ft | 11 kts | 81° |
| 2026-05-08 02:37 | 33.94771 | -118.40703 | 99 ft | 3 kts | 84° |